createdAt,value
2023-04-26T05:05:12.093Z,74.60
2023-04-26T05:10:15.715Z,75.70
2023-04-26T05:15:19.310Z,76.10
2023-04-26T05:25:28.479Z,76.50
2023-04-26T05:30:32.693Z,76.50
2023-04-26T05:35:36.313Z,77.20
2023-04-26T05:40:41.364Z,77.20
2023-04-26T05:45:51.373Z,77.40
2023-04-26T05:50:55.486Z,77.40
2023-04-26T05:56:01.177Z,77.80
2023-04-26T06:06:10.040Z,77.90
2023-04-26T06:11:16.311Z,76.30
2023-04-26T06:16:19.735Z,78.30
2023-04-26T06:21:24.295Z,78.20
2023-04-26T06:26:29.288Z,78.30
2023-04-26T06:31:33.098Z,78.30
2023-04-26T06:36:36.971Z,78.30
2023-04-26T06:41:41.821Z,78.10
2023-04-26T06:46:49.516Z,78.10
2023-04-26T06:51:53.175Z,78.10
2023-04-26T06:56:59.494Z,78.20
2023-04-26T07:02:04.692Z,78.30
2023-04-26T07:07:08.069Z,78.80
2023-04-26T07:12:13.567Z,79.30
2023-04-26T07:17:19.088Z,78.60
2023-04-26T07:22:22.396Z,79.50
2023-04-26T07:27:27.126Z,79.70
2023-04-26T07:32:30.597Z,79.70
2023-04-26T07:37:34.073Z,79.70
2023-04-26T07:42:38.763Z,79.50
2023-04-26T07:47:42.074Z,79.30
2023-04-26T07:52:45.483Z,79.60
2023-04-26T07:57:50.224Z,79.20
2023-04-26T08:02:53.680Z,79.20
2023-04-26T08:07:57.234Z,79.40
2023-04-26T08:13:03.572Z,79.90
2023-04-26T08:18:07.276Z,80.20
2023-04-26T08:28:15.942Z,79.80
2023-04-26T08:33:19.654Z,79.60
2023-04-26T08:38:23.075Z,79.30
2023-04-26T08:43:28.111Z,80.70
2023-04-26T08:53:36.761Z,80.80
2023-04-26T08:58:41.655Z,80.60
2023-04-26T09:03:45.161Z,80.40
2023-04-26T09:08:48.916Z,80.00
2023-04-26T09:13:53.818Z,79.90
2023-04-26T09:18:58.964Z,80.30
2023-04-26T09:24:04.560Z,80.20
2023-04-26T09:29:19.028Z,80.30
2023-04-26T09:34:22.374Z,81.10
2023-04-26T09:39:33.441Z,81.10
2023-04-26T09:44:38.217Z,80.90
2023-04-26T09:49:45.607Z,81.00
2023-04-26T09:54:49.830Z,80.80
2023-04-26T09:59:56.337Z,79.80
2023-04-26T10:05:02.063Z,78.70
2023-04-26T10:10:06.392Z,78.30
2023-04-26T10:15:12.125Z,77.70
2023-04-26T10:20:16.367Z,77.70
2023-04-26T10:25:19.736Z,77.30
2023-04-26T10:30:24.531Z,76.90
2023-04-26T10:35:28.364Z,77.40
2023-04-26T10:40:32.690Z,78.80
2023-04-26T10:45:38.383Z,78.80
2023-04-26T10:50:56.596Z,78.20
2023-04-26T10:56:00.149Z,77.90
2023-04-26T11:01:08.411Z,78.00
2023-04-26T11:06:13.823Z,77.90
2023-04-26T11:11:19.408Z,77.80
2023-04-26T11:16:26.802Z,77.70
2023-04-26T11:21:32.695Z,77.50
2023-04-26T11:26:36.615Z,77.20
2023-04-26T11:31:41.754Z,77.70
2023-04-26T11:36:46.421Z,77.50
2023-04-26T11:41:50.204Z,77.60
2023-04-26T11:46:54.991Z,77.00
2023-04-26T11:51:58.677Z,77.70
2023-04-26T11:57:02.945Z,78.60
2023-04-26T12:02:08.495Z,78.90
2023-04-26T12:07:11.879Z,77.30
2023-04-26T12:12:15.262Z,76.70
2023-04-26T12:17:20.076Z,76.80
2023-04-26T12:22:23.436Z,76.60
2023-04-26T12:27:26.884Z,77.30
2023-04-26T12:32:31.708Z,77.60
2023-04-26T12:37:35.084Z,76.10
2023-04-26T12:42:38.692Z,75.10
2023-04-26T12:47:43.524Z,74.30
2023-04-26T12:52:47.059Z,74.40
2023-04-26T12:57:50.397Z,74.70
2023-04-26T13:02:55.662Z,75.00
2023-04-26T13:08:00.433Z,76.00
2023-04-26T13:13:03.741Z,76.30
2023-04-26T13:18:08.464Z,76.10
2023-04-26T13:23:11.914Z,76.00
2023-04-26T13:28:15.571Z,75.40
2023-04-26T13:33:21.441Z,74.70
2023-04-26T13:38:26.221Z,74.50
2023-04-26T13:43:30.188Z,74.80
2023-04-26T13:48:34.915Z,74.40
2023-04-26T13:53:38.206Z,74.30
2023-04-26T13:58:43.642Z,75.30
2023-04-26T14:03:48.495Z,75.90
2023-04-26T14:08:52.038Z,76.10
2023-04-26T14:13:57.080Z,75.10
2023-04-26T14:19:02.641Z,74.10
2023-04-26T14:24:06.544Z,72.60
2023-04-26T14:29:09.866Z,71.80
2023-04-26T14:34:14.583Z,72.70
2023-04-26T14:39:17.934Z,72.80
2023-04-26T14:44:23.746Z,72.00
2023-04-26T14:49:28.496Z,72.60
2023-04-26T14:54:32.307Z,72.60
2023-04-26T14:59:35.909Z,72.90
2023-04-26T15:04:40.684Z,74.00
2023-04-26T15:09:44.137Z,73.60
2023-04-26T15:14:47.477Z,73.80
2023-04-26T15:19:52.168Z,73.50
2023-04-26T15:24:55.522Z,73.80
2023-04-26T15:29:58.892Z,74.50
2023-04-26T15:35:04.212Z,74.60
2023-04-26T15:40:10.521Z,74.80
2023-04-26T15:45:14.367Z,75.00
2023-04-26T15:50:19.192Z,74.30
2023-04-26T15:55:22.779Z,74.30
2023-04-26T16:06:43.848Z,73.00
2023-04-26T16:11:47.729Z,76.10
2023-04-26T16:16:51.147Z,76.10
2023-04-26T16:21:56.520Z,76.20
2023-04-26T16:26:59.863Z,76.60
2023-04-26T16:32:03.326Z,76.60
2023-04-26T16:37:08.820Z,76.90
2023-04-26T16:42:12.173Z,77.40
2023-04-26T16:47:15.484Z,77.00
2023-04-26T16:52:20.201Z,77.00
2023-04-26T16:57:23.643Z,76.40
2023-04-26T17:02:27.083Z,76.00
2023-04-26T17:07:31.838Z,76.00
2023-04-26T17:12:35.127Z,75.90
2023-04-26T17:17:38.530Z,76.00
2023-04-26T17:22:43.347Z,76.40
2023-04-26T17:27:46.739Z,76.30
2023-04-26T17:32:50.121Z,76.90
2023-04-26T17:37:54.853Z,76.60
2023-04-26T17:48:02.163Z,77.10
2023-04-26T17:53:07.173Z,77.20
2023-04-26T17:58:11.075Z,77.30
2023-04-26T18:03:14.573Z,77.90
2023-04-26T18:08:20.555Z,78.90
2023-04-26T18:13:24.045Z,78.60
2023-04-26T18:18:27.990Z,78.70
2023-04-26T18:23:33.091Z,79.00
2023-04-26T18:28:36.413Z,79.50
2023-04-26T18:33:39.753Z,79.30
2023-04-26T18:38:44.537Z,79.50
2023-04-26T18:43:47.866Z,79.50
2023-04-26T18:48:51.241Z,79.60
2023-04-26T18:53:56.956Z,80.00
2023-04-26T18:59:00.273Z,80.10
2023-04-26T19:04:03.809Z,80.10
2023-04-26T19:09:11.527Z,80.50
2023-04-26T19:14:14.844Z,80.50
2023-04-26T19:19:18.229Z,80.60
2023-04-26T19:24:22.876Z,81.00
2023-04-26T19:29:26.555Z,81.10
2023-04-26T19:34:31.732Z,81.50
2023-04-26T19:39:36.491Z,82.10
2023-04-26T19:44:40.500Z,81.80
2023-04-26T19:49:43.800Z,82.10
2023-04-26T19:54:48.446Z,82.20
2023-04-26T19:59:51.793Z,82.40
2023-04-26T20:04:55.083Z,82.70
2023-04-26T20:09:59.774Z,83.30
2023-04-26T20:15:03.133Z,83.60
2023-04-26T20:20:07.742Z,83.80
2023-04-26T20:25:12.920Z,84.10
2023-04-26T20:30:16.697Z,83.90
2023-04-26T20:35:20.022Z,84.30
2023-04-26T20:40:24.726Z,84.70
2023-04-26T20:45:28.108Z,84.70
2023-04-26T20:50:31.734Z,85.30
2023-04-26T20:55:36.696Z,86.00
2023-04-26T21:00:40.356Z,86.10
2023-04-26T21:05:43.628Z,86.50
2023-04-26T21:10:48.315Z,86.70
2023-04-26T21:15:51.671Z,87.10
2023-04-26T21:20:55.001Z,87.20
2023-04-26T21:25:59.670Z,87.00
2023-04-26T21:31:04.517Z,86.80
2023-04-26T21:36:08.217Z,86.50
2023-04-26T21:41:12.894Z,86.70
2023-04-26T21:46:16.255Z,86.70
2023-04-26T21:51:20.986Z,86.50
2023-04-26T21:56:25.882Z,86.20
2023-04-26T22:01:29.253Z,86.30
2023-04-26T22:06:32.653Z,86.80
2023-04-26T22:11:37.508Z,86.90
2023-04-26T22:16:41.099Z,86.90
2023-04-26T22:21:44.485Z,87.40
2023-04-26T22:26:49.212Z,87.60
